Time;durP1;ratioP1;P1;durP2;ratioP2;P2;SDS_P1;SDS_P2;PMS_P1;PMS_P2;Temp;Humidity;BMP_temperature;BMP_pressure;BME280_temperature;BME280_humidity;BME280_pressure;Samples;Min_cycle;Max_cycle;Signal;HPM_P1;HPM_P2
2024/04/03 00:00:53;;;;;;;7.93;2.70;;;10.10;99.90;;;13.73;94.24;99847.75;4918393;29;20056;-75
2024/04/03 00:03:18;;;;;;;6.72;2.60;;;10.10;99.90;;;13.85;93.79;99850.34;4917619;29;20503;-75
2024/04/03 00:05:45;;;;;;;6.97;2.65;;;10.10;99.90;;;13.98;92.86;99846.34;4932138;29;20032;-75
2024/04/03 00:08:11;;;;;;;9.20;2.83;;;10.10;99.90;;;13.89;93.46;99844.09;4914662;29;20040;-75
2024/04/03 00:10:37;;;;;;;11.13;3.25;;;10.10;99.90;;;13.68;92.36;99837.56;4917203;29;20036;-76
2024/04/03 00:13:03;;;;;;;7.40;3.25;;;10.10;99.90;;;13.80;94.24;99843.72;4917665;29;20047;-76
2024/04/03 00:15:28;;;;;;;8.23;3.20;;;10.10;99.90;;;13.72;94.38;99837.88;4917320;29;20044;-77
2024/04/03 00:17:54;;;;;;;9.10;2.92;;;10.10;99.90;;;13.88;93.56;99839.69;4915591;29;20024;-77
2024/04/03 00:20:23;;;;;;;6.35;2.67;;;10.00;99.90;;;13.85;93.46;99828.41;4914653;29;20448;-77
2024/04/03 00:22:50;;;;;;;9.18;3.03;;;10.00;99.90;;;13.92;92.44;99840.81;4911328;29;20051;-75
2024/04/03 00:25:17;;;;;;;8.55;3.15;;;10.00;99.90;;;13.98;93.27;99844.47;4914566;29;20151;-74
2024/04/03 00:27:43;;;;;;;7.20;2.80;;;10.00;99.90;;;13.82;93.32;99835.25;4916662;29;20436;-75
2024/04/03 00:30:10;;;;;;;10.65;3.00;;;10.00;99.90;;;13.76;94.49;99836.25;4917316;29;20036;-76
2024/04/03 00:32:35;;;;;;;10.65;2.75;;;10.00;99.90;;;14.06;92.32;99834.94;4917208;29;20047;-75
2024/04/03 00:35:02;;;;;;;10.55;3.38;;;10.00;99.90;;;13.91;93.44;99827.38;4917380;29;20036;-76
2024/04/03 00:37:29;;;;;;;9.23;3.45;;;10.00;99.90;;;13.72;94.61;99825.00;4916336;29;20042;-75
2024/04/03 00:39:56;;;;;;;7.45;2.83;;;10.00;99.90;;;13.68;95.83;99828.50;4908002;29;20049;-76
2024/04/03 00:42:24;;;;;;;7.45;2.90;;;9.90;99.90;;;13.64;96.12;99817.22;4915336;29;20072;-77
2024/04/03 00:44:50;;;;;;;10.93;3.40;;;9.80;99.90;;;13.49;96.93;99831.59;4917468;29;20035;-76
2024/04/03 00:47:17;;;;;;;11.40;3.33;;;9.80;99.90;;;13.52;96.24;99825.59;4916169;29;20268;-75
2024/04/03 00:49:44;;;;;;;11.00;3.47;;;9.80;99.90;;;13.52;96.32;99823.69;4916847;29;20119;-75
2024/04/03 00:52:15;;;;;;;12.20;3.08;;;9.70;99.90;;;13.14;97.27;99819.09;4916992;29;20050;-75
2024/04/03 00:54:42;;;;;;;9.32;3.20;;;9.70;99.90;;;13.55;96.93;99818.78;4916537;29;20036;-76
2024/04/03 00:57:12;;;;;;;11.10;3.50;;;9.60;99.90;;;13.35;96.82;99809.19;4917297;29;20063;-75
2024/04/03 00:59:39;;;;;;;7.75;2.97;;;9.40;99.90;;;13.22;98.05;99837.81;4915401;29;20063;-74
2024/04/03 01:02:06;;;;;;;13.67;3.70;;;9.40;99.90;;;13.42;97.58;99833.66;4916938;29;20067;-77
2024/04/03 01:04:33;;;;;;;;;;;9.40;99.90;;;13.25;99.37;99823.59;4915618;29;20056;-76
2024/04/03 01:07:07;;;;;;;12.82;3.42;;;9.40;99.90;;;13.53;98.31;99830.00;4914823;29;19930;-78
2024/04/03 01:09:33;;;;;;;14.15;4.28;;;9.40;99.90;;;13.20;97.49;99824.38;4917477;29;20107;-78
2024/04/03 01:12:00;;;;;;;12.52;4.20;;;9.30;99.90;;;13.27;98.52;99824.19;4916117;29;20484;-78
2024/04/03 01:14:25;;;;;;;11.00;3.92;;;9.30;99.90;;;13.26;99.55;99819.81;4916786;29;20075;-78
2024/04/03 01:16:51;;;;;;;13.25;4.28;;;9.30;99.90;;;13.17;99.96;99816.69;4916621;29;20465;-78
2024/04/03 01:19:17;;;;;;;12.20;4.80;;;9.30;99.90;;;13.25;100.00;99823.59;4917001;29;20039;-77
2024/04/03 01:21:43;;;;;;;12.05;4.95;;;9.20;99.90;;;13.28;100.00;99825.84;4916903;29;20044;-78
2024/04/03 01:24:08;;;;;;;13.73;4.85;;;9.20;99.90;;;13.13;100.00;99826.50;4916410;29;20137;-76
2024/04/03 01:26:34;;;;;;;14.43;4.90;;;9.20;99.90;;;13.18;100.00;99817.50;4915129;29;20068;-76
2024/04/03 01:29:00;;;;;;;13.73;6.20;;;9.20;99.90;;;13.22;100.00;99824.94;4912313;29;20047;-77
2024/04/03 01:31:26;;;;;;;12.18;5.45;;;9.10;99.90;;;12.92;100.00;99811.69;4916506;29;20496;-76
2024/04/03 01:33:53;;;;;;;;;;;9.10;99.90;;;13.04;100.00;99825.25;4916428;29;20051;-76
2024/04/03 01:36:19;;;;;;;13.98;5.68;;;9.10;99.90;;;13.13;100.00;99823.75;4919801;29;19919;-77
2024/04/03 01:39:03;;;;;;;14.48;6.20;;;9.10;99.90;;;13.05;100.00;99805.84;4909728;29;20067;-77
2024/04/03 01:41:29;;;;;;;12.93;5.95;;;9.10;99.90;;;13.03;100.00;99807.16;4912268;29;20115;-77
2024/04/03 01:43:55;;;;;;;12.73;6.60;;;9.10;99.90;;;13.00;100.00;99800.31;4916261;29;20496;-78
2024/04/03 01:46:20;;;;;;;16.52;7.15;;;9.10;99.90;;;13.23;100.00;99803.84;4914372;29;20036;-76
2024/04/03 01:48:46;;;;;;;13.45;6.38;;;9.10;99.90;;;13.31;100.00;99819.88;4916686;29;20044;-76
2024/04/03 01:51:12;;;;;;;23.02;8.93;;;9.00;99.90;;;13.13;100.00;99826.50;4915531;29;20403;-77
2024/04/03 01:53:38;;;;;;;16.10;6.40;;;9.10;99.90;;;13.27;100.00;99826.09;4916658;29;20512;-77
2024/04/03 01:56:04;;;;;;;15.57;6.32;;;9.10;99.90;;;13.32;100.00;99818.78;4917294;29;20087;-78
2024/04/03 01:58:30;;;;;;;13.88;5.85;;;9.10;99.90;;;13.33;100.00;99803.16;4917718;29;20043;-78
2024/04/03 02:00:55;;;;;;;15.60;6.57;;;9.10;99.90;;;13.23;100.00;99788.25;4916797;29;20084;-77
2024/04/03 02:03:21;;;;;;;15.13;6.50;;;9.10;99.90;;;13.35;100.00;99799.09;4917078;29;20036;-78
2024/04/03 02:05:49;;;;;;;13.27;6.00;;;9.10;99.90;;;13.33;100.00;99792.19;4917423;29;20131;-77
2024/04/03 02:08:15;;;;;;;13.50;6.20;;;9.00;99.90;;;12.98;100.00;99805.19;4931637;29;20028;-77
2024/04/03 02:10:43;;;;;;;14.75;6.72;;;9.00;99.90;;;13.17;100.00;99804.88;4914642;29;20067;-77
2024/04/03 02:13:09;;;;;;;;;;;9.00;99.90;;;13.13;100.00;99795.53;4932925;29;20424;-77
2024/04/03 02:15:35;;;;;;;17.13;7.18;;;8.90;99.90;;;13.03;100.00;99786.09;4917805;29;19923;-77
2024/04/03 02:18:00;;;;;;;17.30;7.13;;;8.80;99.90;;;12.96;100.00;99804.59;4917435;29;20060;-77
2024/04/03 02:20:26;;;;;;;17.23;7.03;;;8.80;99.90;;;12.77;100.00;99788.50;4930418;29;20052;-78
2024/04/03 02:22:52;;;;;;;17.92;7.07;;;8.80;99.90;;;12.92;100.00;99787.03;4929120;29;20056;-77
2024/04/03 02:25:19;;;;;;;15.48;7.30;;;8.80;99.90;;;13.03;100.00;99791.59;4933167;29;20060;-77
2024/04/03 02:27:45;;;;;;;18.70;7.83;;;8.80;99.90;;;12.92;100.00;99790.63;4929176;29;20044;-77
2024/04/03 02:30:11;;;;;;;17.73;7.93;;;8.80;99.90;;;12.79;100.00;99769.91;4934705;29;20381;-77
2024/04/03 02:32:38;;;;;;;18.83;8.75;;;8.80;99.90;;;12.89;100.00;99803.97;4925285;29;20075;-77
2024/04/03 02:35:04;;;;;;;14.88;8.20;;;8.90;99.90;;;13.03;100.00;99791.59;4916149;29;20048;-78
2024/04/03 02:37:30;;;;;;;15.15;7.65;;;8.90;99.90;;;13.08;100.00;99788.06;4916192;29;20116;-77
2024/04/03 02:39:56;;;;;;;15.43;8.07;;;8.90;99.90;;;13.00;100.00;99783.88;4915888;29;20132;-78
2024/04/03 02:42:23;;;;;;;16.42;8.15;;;8.90;99.90;;;13.07;100.00;99786.41;4919108;29;20044;-78
2024/04/03 02:44:49;;;;;;;17.17;8.60;;;8.90;99.90;;;12.86;100.00;99785.31;4915505;29;20036;-78
2024/04/03 02:47:15;;;;;;;15.70;8.27;;;8.90;99.90;;;12.88;100.00;99770.31;4915215;29;20052;-78
2024/04/03 02:49:40;;;;;;;17.52;7.70;;;8.90;99.90;;;13.17;100.00;99780.22;4915394;29;20040;-78
2024/04/03 02:52:06;;;;;;;18.88;8.63;;;8.90;99.90;;;12.96;100.00;99788.19;4913760;29;20102;-78
2024/04/03 02:54:32;;;;;;;14.50;8.75;;;8.90;99.90;;;13.06;100.00;99790.22;4915046;29;20043;-77
2024/04/03 02:56:58;;;;;;;21.67;9.55;;;8.90;99.90;;;12.62;100.00;99767.22;4929253;29;20417;-77
2024/04/03 02:59:23;;;;;;;15.57;9.02;;;9.00;99.90;;;12.77;100.00;99774.81;4915109;29;20032;-77
2024/04/03 03:01:51;;;;;;;18.08;9.35;;;9.00;99.90;;;12.96;100.00;99782.72;4915046;29;20036;-79
2024/04/03 03:04:17;;;;;;;17.55;8.50;;;9.00;99.90;;;13.09;100.00;99779.59;4915014;29;20040;-78
2024/04/03 03:06:43;;;;;;;17.60;8.95;;;9.00;99.90;;;13.15;100.00;99777.78;4914026;29;20480;-78
2024/04/03 03:09:09;;;;;;;18.13;8.48;;;9.00;99.90;;;13.01;100.00;99782.81;4913678;29;20044;-78
2024/04/03 03:11:35;;;;;;;22.60;8.98;;;9.10;99.90;;;13.02;100.00;99787.19;4914720;29;20051;-77
2024/04/03 03:14:00;;;;;;;18.73;9.82;;;9.00;99.90;;;13.15;100.00;99785.97;4913176;29;20054;-77
2024/04/03 03:16:26;;;;;;;20.13;9.13;;;9.00;99.90;;;12.87;100.00;99765.91;4914885;29;20032;-77
2024/04/03 03:18:52;;;;;;;16.23;8.40;;;9.00;99.90;;;13.12;100.00;99785.66;4914717;29;20040;-77
2024/04/03 03:21:18;;;;;;;19.20;7.88;;;9.00;99.90;;;13.03;100.00;99766.09;4929343;29;20036;-77
2024/04/03 03:23:44;;;;;;;19.42;8.27;;;9.00;99.90;;;12.80;100.00;99768.00;4897918;29;20052;-77
2024/04/03 03:26:09;;;;;;;20.40;7.78;;;9.00;99.90;;;13.13;100.00;99773.63;4914928;29;20046;-77
2024/04/03 03:28:35;;;;;;;14.05;7.50;;;9.00;99.90;;;12.97;100.00;99775.34;4922937;29;20037;-78
2024/04/03 03:31:01;;;;;;;19.38;8.23;;;8.90;99.90;;;12.99;100.00;99730.19;4911930;29;20072;-77
2024/04/03 03:33:27;;;;;;;18.65;8.18;;;8.90;99.90;;;13.18;100.00;99774.50;4913254;29;20488;-77
2024/04/03 03:35:55;;;;;;;15.68;7.20;;;9.00;99.90;;;13.07;100.00;99770.81;4914351;29;20044;-78
2024/04/03 03:38:21;;;;;;;18.00;7.10;;;9.00;99.90;;;13.13;100.00;99782.69;4914255;29;20043;-78
2024/04/03 03:40:51;;;;;;;14.60;7.03;;;9.00;99.90;;;13.22;100.00;99780.28;4914376;29;20044;-77
2024/04/03 03:43:18;;;;;;;14.63;6.68;;;9.00;99.90;;;13.45;100.00;99792.09;4914050;29;20044;-78
2024/04/03 03:45:50;;;;;;;13.32;6.03;;;9.00;99.90;;;13.32;100.00;99766.72;4914306;29;20044;-77
2024/04/03 03:48:17;;;;;;;15.57;6.10;;;9.00;99.90;;;13.20;100.00;99785.19;4914576;29;20040;-77
2024/04/03 03:53:32;;;;;;;20.02;5.60;;;9.10;99.90;;;13.45;100.00;99772.91;4912067;29;20462;-77
2024/04/03 03:56:08;;;;;;;14.32;4.93;;;9.10;99.90;;;13.44;100.00;99768.53;4913438;29;20512;-78
2024/04/03 03:59:36;;;;;;;;;;;;;;;;;;;;;
2024/04/03 04:01:54;;;;;;;11.83;4.87;;;9.10;99.90;;;13.02;100.00;99705.06;4906159;29;20048;-78
2024/04/03 04:04:20;;;;;;;13.63;4.70;;;9.10;99.90;;;13.28;100.00;99742.84;4913079;29;20309;-77
2024/04/03 04:06:45;;;;;;;11.20;4.00;;;9.10;99.90;;;13.31;100.00;99754.13;4914361;29;20035;-77
2024/04/03 04:09:11;;;;;;;15.10;4.22;;;9.20;99.90;;;13.46;98.58;99758.97;4913891;29;20392;-78
2024/04/03 04:11:37;;;;;;;11.55;4.03;;;9.10;99.90;;;13.36;99.16;99747.84;4914170;29;20488;-78
2024/04/03 04:14:03;;;;;;;15.30;4.20;;;9.10;99.90;;;13.50;98.71;99762.00;4914545;29;20044;-78
2024/04/03 04:16:31;;;;;;;15.73;3.65;;;9.20;99.90;;;13.44;97.25;99746.59;4914750;29;20039;-77
2024/04/03 04:18:57;;;;;;;12.23;3.65;;;9.20;99.90;;;13.69;95.74;99747.94;4901687;29;20636;-77
2024/04/03 04:21:23;;;;;;;14.00;3.60;;;9.20;99.90;;;13.75;95.10;99752.38;4916246;29;20108;-78
2024/04/03 04:23:56;;;;;;;11.40;3.72;;;9.20;99.90;;;13.60;97.05;99762.13;4917062;29;20044;-78
2024/04/03 04:26:24;;;;;;;14.73;3.55;;;9.20;99.90;;;13.69;96.01;99758.91;4917807;29;20455;-77
2024/04/03 04:28:50;;;;;;;11.15;3.13;;;9.20;99.90;;;13.70;95.99;99766.03;4914592;29;20051;-77
2024/04/03 04:31:16;;;;;;;13.43;3.22;;;9.20;99.90;;;13.63;95.64;99755.28;4916298;29;20028;-78
2024/04/03 04:33:41;;;;;;;13.30;3.53;;;9.20;99.90;;;13.41;97.36;99758.88;4917355;29;20050;-77
2024/04/03 04:36:07;;;;;;;8.15;2.72;;;9.10;99.90;;;13.40;97.42;99773.66;4912963;29;20045;-78
2024/04/03 04:38:33;;;;;;;12.45;3.55;;;9.10;99.90;;;13.20;97.74;99738.63;4915257;29;20032;-78
2024/04/03 04:41:02;;;;;;;9.93;3.10;;;9.20;99.90;;;13.40;98.24;99767.34;4917113;29;20063;-77
2024/04/03 04:43:31;;;;;;;10.02;3.15;;;9.20;99.90;;;13.26;97.24;99751.34;4916483;29;20095;-78
2024/04/03 04:46:00;;;;;;;12.07;2.85;;;9.30;99.90;;;13.26;96.20;99748.59;4915724;29;20559;-77
2024/04/03 04:48:28;;;;;;;9.75;2.90;;;9.30;99.90;;;13.54;95.19;99771.38;4931781;29;20040;-78
2024/04/03 04:50:58;;;;;;;12.00;3.03;;;9.30;99.90;;;13.44;94.93;99752.91;4917329;29;20040;-78
2024/04/03 04:53:24;;;;;;;10.63;2.70;;;9.40;99.90;;;13.53;94.02;99761.50;4916040;29;20036;-78
2024/04/03 04:56:05;;;;;;;9.07;2.28;;;9.40;99.90;;;13.47;94.96;99771.59;4916757;29;20096;-78
2024/04/03 04:58:31;;;;;;;8.45;2.55;;;9.40;99.90;;;13.26;94.38;99766.91;4917837;29;20048;-78
2024/04/03 05:01:06;;;;;;;11.90;3.15;;;9.40;99.90;;;13.47;96.01;99768.00;4914413;29;20044;-78
2024/04/03 05:03:33;;;;;;;13.18;3.00;;;9.50;99.90;;;13.24;96.10;99753.47;4905531;29;20586;-79
2024/04/03 05:06:00;;;;;;;9.70;2.85;;;9.50;99.90;;;13.54;94.21;99760.44;4908537;29;20032;-78
2024/04/03 05:08:26;;;;;;;10.02;3.35;;;9.60;99.90;;;13.46;96.82;99767.19;4910389;29;20036;-78
2024/04/03 05:10:57;;;;;;;13.93;3.63;;;9.60;99.90;;;13.43;95.55;99756.75;4911201;29;20484;-78
2024/04/03 05:13:32;;;;;;;8.57;2.90;;;9.60;99.90;;;13.67;95.22;99770.16;4911098;29;20047;-78
2024/04/03 05:16:08;;;;;;;9.57;2.90;;;9.70;99.90;;;13.71;94.25;99767.69;4913644;29;20146;-78
2024/04/03 05:18:35;;;;;;;11.43;3.42;;;9.70;99.90;;;13.48;95.75;99765.00;4911410;29;20036;-78
2024/04/03 05:21:02;;;;;;;9.37;3.17;;;9.70;99.90;;;13.81;94.20;99759.59;4908554;29;20381;-77
2024/04/03 05:23:30;;;;;;;14.65;3.30;;;9.70;99.90;;;13.63;97.64;99767.09;4915048;29;20437;-78
2024/04/03 05:26:09;;;;;;;15.48;4.22;;;9.70;99.90;;;13.63;97.65;99778.03;4914139;29;20541;-78
2024/04/03 05:28:35;;;;;;;16.08;4.68;;;9.70;99.90;;;13.28;99.22;99770.22;4913693;29;20028;-78
2024/04/03 05:31:15;;;;;;;11.88;3.50;;;9.80;99.90;;;13.88;96.42;99773.91;4916019;29;20051;-78
2024/04/03 05:33:43;;;;;;;12.13;4.47;;;9.80;99.90;;;13.58;98.27;99775.25;4912905;29;20087;-79
2024/04/03 05:36:10;;;;;;;14.02;4.35;;;9.80;99.90;;;13.43;99.38;99762.22;4908371;29;20392;-78
2024/04/03 05:38:36;;;;;;;15.93;4.35;;;9.80;99.90;;;13.83;99.50;99771.13;4915953;29;20067;-77
2024/04/03 05:41:02;;;;;;;13.93;4.05;;;9.80;99.90;;;13.87;97.66;99769.50;4912719;29;20512;-78
2024/04/03 05:43:29;;;;;;;12.52;4.80;;;9.80;99.90;;;13.43;98.32;99769.59;4915497;29;20075;-78
2024/04/03 05:45:56;;;;;;;10.65;4.45;;;9.80;99.90;;;13.96;97.80;99780.81;4915768;29;20160;-78
2024/04/03 05:48:29;;;;;;;15.55;5.47;;;9.80;99.90;;;13.86;99.06;99787.03;4914556;29;20056;-78
2024/04/03 05:51:03;;;;;;;11.77;5.00;;;9.90;99.90;;;13.94;100.00;99789.31;4911027;29;20119;-78
2024/04/03 05:53:30;;;;;;;12.30;4.53;;;9.80;99.90;;;14.04;97.84;99776.75;4916258;29;20067;-79
2024/04/03 05:55:59;;;;;;;13.07;5.30;;;9.90;99.90;;;13.99;98.71;99790.44;4915676;29;20043;-78
2024/04/03 05:58:25;;;;;;;9.98;4.68;;;9.80;99.90;;;13.99;100.00;99791.28;4930328;29;20036;-77
2024/04/03 06:00:58;;;;;;;11.27;5.53;;;9.80;99.90;;;13.70;99.94;99777.00;4915946;29;20123;-77
2024/04/03 06:03:24;;;;;;;11.35;4.82;;;9.90;99.90;;;13.88;100.00;99787.59;4915362;29;20064;-77
2024/04/03 06:05:56;;;;;;;10.73;5.32;;;9.90;99.90;;;14.05;100.00;99783.91;4915702;29;20036;-78
2024/04/03 06:08:22;;;;;;;12.07;4.97;;;9.80;99.90;;;14.02;100.00;99779.78;4915816;29;20086;-80
2024/04/03 06:10:49;;;;;;;11.02;5.93;;;9.80;99.90;;;13.88;100.00;99782.13;4915690;29;20051;-79
2024/04/03 06:13:15;;;;;;;11.73;5.87;;;9.90;99.90;;;13.85;100.00;99771.69;4915655;29;20040;-78
2024/04/03 06:15:41;;;;;;;10.63;5.50;;;9.90;99.90;;;14.02;100.00;99779.78;4914017;29;20040;-78
2024/04/03 06:18:07;;;;;;;13.68;5.93;;;9.90;99.90;;;14.02;100.00;99787.16;4912026;29;20119;-78
2024/04/03 06:20:33;;;;;;;13.02;6.60;;;9.90;99.90;;;13.97;100.00;99767.94;4907761;29;20143;-78
2024/04/03 06:22:59;;;;;;;10.57;5.80;;;10.00;99.90;;;14.34;100.00;99783.59;4912991;29;20043;-77
2024/04/03 06:25:25;;;;;;;10.50;6.18;;;10.20;99.90;;;14.47;100.00;99780.38;4913470;29;20036;-79
2024/04/03 06:27:53;;;;;;;12.35;6.35;;;10.30;99.90;;;14.65;100.00;99784.63;4910939;29;20111;-79
2024/04/03 06:30:20;;;;;;;17.67;6.35;;;10.50;99.90;;;14.39;100.00;99778.16;4922329;29;20472;-79
2024/04/03 06:32:46;;;;;;;12.68;6.00;;;10.50;99.90;;;14.43;100.00;99772.94;4927591;29;20404;-78
2024/04/03 06:35:11;;;;;;;13.55;5.82;;;10.60;99.90;;;14.44;100.00;99764.47;4915701;29;20083;-80
2024/04/03 06:37:37;;;;;;;9.80;5.57;;;10.70;99.90;;;14.53;100.00;99792.22;4915467;29;20048;-79
2024/04/03 06:40:03;;;;;;;12.38;6.82;;;10.60;99.90;;;14.19;100.00;99767.81;4915151;29;20044;-80
2024/04/03 06:42:30;;;;;;;11.57;5.95;;;10.60;99.90;;;14.46;100.00;99777.94;4915280;29;20051;-81
2024/04/03 06:44:56;;;;;;;12.45;6.30;;;10.50;99.90;;;14.63;100.00;99777.75;4914476;29;20044;-79
2024/04/03 06:47:26;;;;;;;11.23;5.82;;;10.50;99.90;;;14.64;100.00;99782.16;4929359;29;20028;-80
2024/04/03 06:49:56;;;;;;;12.45;5.70;;;10.50;99.90;;;14.59;100.00;99787.63;4928823;29;20040;-79
2024/04/03 06:52:24;;;;;;;10.45;5.25;;;10.40;99.90;;;14.66;100.00;99783.53;4914668;29;20119;-78
2024/04/03 06:54:51;;;;;;;9.90;5.78;;;10.40;99.90;;;14.70;100.00;99775.59;4908376;29;20044;-79
2024/04/03 06:57:17;;;;;;;9.13;5.05;;;10.50;99.90;;;14.82;100.00;99789.16;4925301;29;20036;-79
2024/04/03 06:59:42;;;;;;;12.63;5.57;;;10.50;99.90;;;14.77;100.00;99783.63;4903014;29;20052;-78
2024/04/03 07:02:08;;;;;;;8.27;4.78;;;10.50;99.90;;;14.31;100.00;99778.63;4908637;29;20123;-79
2024/04/03 07:04:34;;;;;;;10.57;5.20;;;10.50;99.90;;;14.70;100.00;99788.47;4909715;29;20063;-79
2024/04/03 07:07:02;;;;;;;10.18;4.55;;;10.40;99.90;;;14.81;100.00;99788.31;4913902;29;20054;-79
2024/04/03 07:09:28;;;;;;;11.43;5.22;;;10.40;99.90;;;14.76;100.00;99788.28;4911695;29;20039;-80
2024/04/03 07:11:53;;;;;;;13.70;5.00;;;10.60;99.90;;;14.70;100.00;99763.78;4910728;29;20045;-79
2024/04/03 07:14:19;;;;;;;9.98;4.93;;;10.50;99.90;;;14.75;100.00;99785.81;4908926;29;20051;-79
2024/04/03 07:16:46;;;;;;;11.38;5.18;;;10.50;99.90;;;14.86;100.00;99781.22;4905482;29;20073;-80
2024/04/03 07:19:11;;;;;;;9.00;4.90;;;10.40;99.90;;;14.61;100.00;99775.25;4910323;29;20068;-80
2024/04/03 07:21:40;;;;;;;7.72;4.75;;;10.40;99.90;;;14.84;100.00;99786.13;4895938;29;20036;-80
2024/04/03 07:24:07;;;;;;;10.20;5.25;;;10.40;99.90;;;14.70;100.00;99755.53;4913626;29;20051;-80
2024/04/03 07:26:32;;;;;;;8.07;4.80;;;10.40;99.90;;;14.79;100.00;99768.53;4928613;29;20035;-83
2024/04/03 07:28:58;;;;;;;8.68;4.90;;;10.40;99.90;;;14.76;100.00;99779.22;4908192;29;20126;-80
2024/04/03 07:31:24;;;;;;;10.00;4.88;;;10.50;99.90;;;14.66;100.00;99780.78;4905496;29;20095;-80
2024/04/03 07:33:50;;;;;;;8.88;4.72;;;10.60;99.90;;;14.95;100.00;99776.84;4913769;29;20044;-79
2024/04/03 07:36:18;;;;;;;7.50;4.32;;;10.70;99.90;;;15.06;100.00;99780.47;4913635;29;20420;-80
2024/04/03 07:38:44;;;;;;;8.10;4.97;;;10.90;99.90;;;15.42;100.00;99774.28;4913506;29;20031;-79
2024/04/03 07:41:10;;;;;;;7.10;4.20;;;11.00;99.90;;;15.42;100.00;99788.84;4912188;29;20052;-82
2024/04/03 07:43:35;;;;;;;7.43;3.70;;;11.30;99.90;;;15.34;100.00;99787.44;4908141;29;20416;-78
2024/04/03 07:46:01;;;;;;;7.68;4.00;;;11.30;99.90;;;15.53;100.00;99795.19;4892903;29;20389;-81
2024/04/03 07:48:27;;;;;;;8.23;3.65;;;11.30;99.90;;;15.48;100.00;99781.44;4906478;29;20040;-82
2024/04/03 07:51:02;;;;;;;7.95;3.55;;;11.40;99.90;;;15.43;100.00;99800.66;4910306;29;20048;-78
2024/04/03 07:53:28;;;;;;;7.25;3.40;;;11.30;99.90;;;15.46;100.00;99795.44;4909785;29;20044;-78
2024/04/03 07:55:54;;;;;;;6.40;3.67;;;11.30;99.90;;;15.62;100.00;99804.56;4909203;29;20095;-78
2024/04/03 07:58:20;;;;;;;6.95;3.25;;;11.40;99.90;;;15.78;100.00;99802.69;4915961;29;20047;-79
2024/04/03 08:00:45;;;;;;;5.75;3.08;;;11.50;99.90;;;15.64;100.00;99802.34;4907619;29;20043;-78
2024/04/03 08:03:12;;;;;;;4.80;2.55;;;11.50;99.90;;;15.40;100.00;99802.03;4911851;29;20044;-78
2024/04/03 08:05:37;;;;;;;6.53;3.10;;;11.50;99.90;;;15.28;100.00;99802.25;4912259;29;20047;-80
2024/04/03 08:08:03;;;;;;;7.13;3.58;;;11.30;99.90;;;15.16;100.00;99793.44;4915394;29;20039;-79
2024/04/03 08:10:29;;;;;;;6.72;4.20;;;11.20;99.90;;;15.21;100.00;99804.44;4917387;29;20135;-79
2024/04/03 08:12:55;;;;;;;6.70;3.90;;;11.20;99.90;;;15.58;100.00;99803.44;4917406;29;20047;-82
2024/04/03 08:15:21;;;;;;;7.47;4.03;;;11.10;99.90;;;15.68;100.00;99811.75;4913438;29;20044;-83
2024/04/03 08:17:47;;;;;;;7.55;4.75;;;11.30;99.90;;;15.66;100.00;99800.19;4915277;29;20091;-78
2024/04/03 08:20:12;;;;;;;7.25;4.28;;;11.50;99.90;;;15.82;100.00;99805.69;4916089;29;20048;-79
2024/04/03 08:22:38;;;;;;;7.68;4.78;;;11.60;99.90;;;16.03;100.00;99803.81;4931582;29;20040;-81
2024/04/03 08:25:04;;;;;;;6.75;4.65;;;11.70;99.90;;;15.86;100.00;99804.06;4911909;29;20483;-80
2024/04/03 08:27:34;;;;;;;5.70;4.00;;;11.80;99.90;;;15.79;100.00;99812.59;4911735;29;20048;-80
2024/04/03 08:30:01;;;;;;;7.13;4.10;;;11.70;99.90;;;15.82;100.00;99813.94;4913109;29;20035;-79
2024/04/03 08:32:27;;;;;;;5.78;4.00;;;11.70;99.90;;;15.72;100.00;99813.94;4912597;29;20039;-80
2024/04/03 08:34:53;;;;;;;6.28;4.63;;;11.60;99.90;;;15.73;100.00;99804.59;4912748;29;20036;-80
2024/04/03 08:37:20;;;;;;;4.88;3.85;;;11.70;99.90;;;15.72;100.00;99806.50;4913793;29;20040;-80
2024/04/03 08:39:50;;;;;;;6.10;4.20;;;11.70;99.90;;;15.67;100.00;99801.00;4909073;29;20532;-80
2024/04/03 08:42:16;;;;;;;6.53;4.10;;;11.70;99.90;;;15.79;100.00;99807.09;4914139;29;20056;-80
2024/04/03 08:44:42;;;;;;;7.68;4.57;;;11.80;99.90;;;15.60;100.00;99805.94;4913181;29;20050;-79
2024/04/03 08:47:08;;;;;;;5.70;4.22;;;11.80;99.90;;;15.38;100.00;99799.56;4917726;29;20036;-80
2024/04/03 08:49:36;;;;;;;8.45;5.00;;;11.90;99.90;;;15.25;100.00;99802.78;4916485;29;20044;-80
2024/04/03 08:52:12;;;;;;;6.55;4.40;;;11.80;99.90;;;15.30;100.00;99799.25;4917192;29;20585;-80
2024/04/03 08:54:43;;;;;;;7.50;5.10;;;11.80;99.90;;;15.87;100.00;99799.38;4915069;29;20051;-80
2024/04/03 08:57:12;;;;;;;6.10;4.72;;;11.90;99.90;;;16.13;100.00;99804.94;4911017;29;20041;-80
2024/04/03 08:59:43;;;;;;;5.90;4.25;;;12.10;99.90;;;15.96;100.00;99793.13;4912170;29;20032;-81
2024/04/03 09:02:12;;;;;;;8.63;4.63;;;;;;;16.41;100.00;99814.56;4916265;29;20042;-78
2024/04/03 09:04:39;;;;;;;11.73;4.03;;;;;;;15.91;100.00;99808.78;4913578;29;20052;-81
2024/04/03 09:07:05;;;;;;;6.10;3.45;;;12.20;99.90;;;16.65;100.00;99808.47;4916469;29;20032;-81
2024/04/03 09:09:32;;;;;;;3.85;2.70;;;12.50;99.90;;;16.89;99.70;99811.47;4917557;29;20051;-81
2024/04/03 09:12:03;;;;;;;3.83;2.63;;;12.60;99.90;;;16.65;99.95;99813.97;4915147;29;20132;-81
2024/04/03 09:14:30;;;;;;;5.72;2.63;;;;;;;16.79;100.00;99820.56;4915999;29;20071;-81
2024/04/03 09:17:05;;;;;;;4.20;2.33;;;;;;;16.54;99.30;99816.75;4913067;29;20040;-80
2024/04/03 09:19:33;;;;;;;3.75;2.00;;;12.70;99.90;;;16.14;100.00;99814.84;4913715;29;20040;-81
2024/04/03 09:22:02;;;;;;;4.65;2.20;;;12.60;99.90;;;16.27;100.00;99816.22;4915607;29;20497;-80
2024/04/03 09:24:39;;;;;;;6.18;2.30;;;12.40;99.90;;;16.14;100.00;99812.09;4909497;29;20067;-80
2024/04/03 09:27:10;;;;;;;5.38;1.98;;;12.30;99.90;;;16.21;100.00;99827.25;4903089;29;20436;-79
2024/04/03 09:29:37;;;;;;;6.22;2.25;;;12.20;99.90;;;15.47;100.00;99788.03;4916473;29;20040;-80
2024/04/03 09:32:05;;;;;;;;;;;12.00;99.90;;;15.62;100.00;99799.06;4917895;29;20052;-80
2024/04/03 09:34:33;;;;;;;4.82;1.90;;;12.00;99.90;;;15.10;100.00;99793.38;4915535;29;19927;-80
2024/04/03 09:37:02;;;;;;;6.70;2.45;;;11.90;99.90;;;15.60;100.00;99812.25;4917355;29;20461;-80
2024/04/03 09:39:27;;;;;;;4.35;2.10;;;11.90;99.90;;;15.60;100.00;99826.00;4913630;29;20131;-80
2024/04/03 09:42:05;;;;;;;4.53;2.22;;;11.90;99.90;;;15.61;100.00;99824.91;4911210;29;20205;-81
2024/04/03 09:44:37;;;;;;;5.70;2.30;;;11.90;99.90;;;15.63;100.00;99814.44;4909294;29;20107;-81
2024/04/03 09:47:13;;;;;;;4.45;2.42;;;12.00;99.90;;;15.73;100.00;99818.34;4916592;29;20040;-82
2024/04/03 09:49:51;;;;;;;4.38;2.00;;;12.00;99.90;;;15.65;100.00;99816.94;4915136;29;20411;-79
2024/04/03 09:52:19;;;;;;;3.88;1.90;;;12.00;99.90;;;15.67;100.00;99815.59;4917369;29;20040;-81
2024/04/03 09:54:48;;;;;;;3.05;1.90;;;12.10;99.90;;;15.70;100.00;99805.13;4916528;29;20043;-80
2024/04/03 09:57:17;;;;;;;3.10;1.77;;;12.00;99.90;;;15.57;100.00;99812.78;4916284;29;20059;-81
2024/04/03 09:59:47;;;;;;;4.13;1.58;;;11.90;99.90;;;15.38;100.00;99790.47;4917078;29;20040;-80
2024/04/03 10:02:14;;;;;;;3.22;1.40;;;11.90;99.90;;;15.37;100.00;99802.56;4914443;29;20036;-80
2024/04/03 10:04:42;;;;;;;4.57;1.40;;;11.90;99.90;;;14.78;100.00;99807.25;4905073;29;20064;-82
2024/04/03 10:07:17;;;;;;;4.28;1.20;;;11.80;99.90;;;14.78;100.00;99812.75;4930959;29;20412;-82
2024/04/03 10:09:54;;;;;;;5.40;1.25;;;11.60;99.90;;;14.85;100.00;99813.31;4880823;29;20107;-81
2024/04/03 10:12:25;;;;;;;3.05;1.27;;;11.50;99.90;;;14.59;100.00;99793.09;4894963;29;20052;-79
2024/04/03 10:14:57;;;;;;;2.97;1.23;;;11.40;99.90;;;14.52;100.00;99816.09;4919500;29;20043;-79
2024/04/03 10:17:23;;;;;;;4.47;0.90;;;11.20;99.90;;;14.65;100.00;99808.50;4926425;29;20032;-80
2024/04/03 10:20:03;;;;;;;3.33;1.30;;;11.10;99.90;;;14.94;100.00;99776.00;4926009;29;20047;-81
2024/04/03 10:22:30;;;;;;;3.85;1.10;;;11.20;99.90;;;15.14;100.00;99776.41;4915419;29;20044;-81